sensor_id;sensor_type;location;lat;lon;timestamp;P1;durP1;ratioP1;P2;durP2;ratioP2
38755;SDS011;77170;43.486;-1.508;2024-03-23T00:54:32;13.27;;;3.20;;
38755;SDS011;77170;43.486;-1.508;2024-03-23T00:56:58;12.82;;;3.35;;
38755;SDS011;77170;43.486;-1.508;2024-03-23T00:59:24;14.18;;;2.80;;
38755;SDS011;77170;43.486;-1.508;2024-03-23T01:01:53;14.73;;;3.17;;
38755;SDS011;77170;43.486;-1.508;2024-03-23T01:04:20;17.17;;;3.10;;
38755;SDS011;77170;43.486;-1.508;2024-03-23T01:06:46;21.13;;;3.38;;
38755;SDS011;77170;43.486;-1.508;2024-03-23T01:09:15;17.23;;;3.42;;
38755;SDS011;77170;43.486;-1.508;2024-03-23T01:11:42;15.98;;;4.18;;
38755;SDS011;77170;43.486;-1.508;2024-03-23T01:14:08;14.70;;;2.90;;
38755;SDS011;77170;43.486;-1.508;2024-03-23T01:16:34;21.73;;;3.40;;
38755;SDS011;77170;43.486;-1.508;2024-03-23T01:19:00;11.40;;;3.40;;
38755;SDS011;77170;43.486;-1.508;2024-03-23T01:21:27;21.13;;;3.33;;
38755;SDS011;77170;43.486;-1.508;2024-03-23T01:23:53;15.32;;;3.67;;
38755;SDS011;77170;43.486;-1.508;2024-03-23T01:26:19;13.77;;;3.03;;
38755;SDS011;77170;43.486;-1.508;2024-03-23T01:28:45;14.60;;;3.58;;
38755;SDS011;77170;43.486;-1.508;2024-03-23T01:31:14;12.25;;;2.92;;
38755;SDS011;77170;43.486;-1.508;2024-03-23T01:33:41;14.85;;;3.22;;
38755;SDS011;77170;43.486;-1.508;2024-03-23T01:36:07;13.20;;;2.63;;
38755;SDS011;77170;43.486;-1.508;2024-03-23T01:38:36;17.50;;;2.80;;
38755;SDS011;77170;43.486;-1.508;2024-03-23T01:41:02;14.95;;;3.53;;
38755;SDS011;77170;43.486;-1.508;2024-03-23T01:43:28;14.00;;;3.08;;
38755;SDS011;77170;43.486;-1.508;2024-03-23T01:45:54;19.08;;;3.15;;
38755;SDS011;77170;43.486;-1.508;2024-03-23T01:48:20;20.48;;;3.22;;
38755;SDS011;77170;43.486;-1.508;2024-03-23T01:50:47;18.63;;;3.05;;
38755;SDS011;77170;43.486;-1.508;2024-03-23T01:53:16;11.17;;;2.80;;
38755;SDS011;77170;43.486;-1.508;2024-03-23T01:55:44;14.18;;;3.20;;
38755;SDS011;77170;43.486;-1.508;2024-03-23T01:58:11;15.38;;;4.00;;
38755;SDS011;77170;43.486;-1.508;2024-03-23T02:00:37;15.88;;;3.33;;
38755;SDS011;77170;43.486;-1.508;2024-03-23T02:03:21;17.23;;;3.83;;
38755;SDS011;77170;43.486;-1.508;2024-03-23T02:05:51;14.20;;;3.17;;
38755;SDS011;77170;43.486;-1.508;2024-03-23T02:08:22;18.15;;;3.35;;
38755;SDS011;77170;43.486;-1.508;2024-03-23T02:10:49;16.48;;;3.80;;
38755;SDS011;77170;43.486;-1.508;2024-03-23T02:13:16;10.50;;;2.95;;
38755;SDS011;77170;43.486;-1.508;2024-03-23T02:15:43;16.58;;;3.30;;
38755;SDS011;77170;43.486;-1.508;2024-03-23T02:18:09;14.38;;;3.08;;
38755;SDS011;77170;43.486;-1.508;2024-03-23T02:20:36;13.55;;;3.80;;
38755;SDS011;77170;43.486;-1.508;2024-03-23T02:23:03;18.95;;;3.45;;
38755;SDS011;77170;43.486;-1.508;2024-03-23T02:25:33;20.52;;;3.70;;
38755;SDS011;77170;43.486;-1.508;2024-03-23T02:27:59;21.40;;;3.83;;
38755;SDS011;77170;43.486;-1.508;2024-03-23T02:30:26;11.55;;;3.20;;
38755;SDS011;77170;43.486;-1.508;2024-03-23T02:32:52;13.35;;;3.33;;
38755;SDS011;77170;43.486;-1.508;2024-03-23T02:35:21;15.65;;;3.60;;
38755;SDS011;77170;43.486;-1.508;2024-03-23T02:37:47;14.63;;;3.20;;
38755;SDS011;77170;43.486;-1.508;2024-03-23T02:40:14;15.20;;;3.58;;
38755;SDS011;77170;43.486;-1.508;2024-03-23T02:42:53;16.13;;;4.22;;
38755;SDS011;77170;43.486;-1.508;2024-03-23T02:45:22;10.88;;;3.63;;
38755;SDS011;77170;43.486;-1.508;2024-03-23T02:47:52;11.80;;;3.50;;
38755;SDS011;77170;43.486;-1.508;2024-03-23T02:50:24;18.83;;;4.30;;
38755;SDS011;77170;43.486;-1.508;2024-03-23T02:52:54;20.10;;;4.50;;
38755;SDS011;77170;43.486;-1.508;2024-03-23T02:55:20;17.48;;;4.60;;
38755;SDS011;77170;43.486;-1.508;2024-03-23T02:57:48;16.73;;;4.28;;
38755;SDS011;77170;43.486;-1.508;2024-03-23T03:00:18;16.73;;;4.77;;
38755;SDS011;77170;43.486;-1.508;2024-03-23T03:02:48;21.63;;;5.03;;
38755;SDS011;77170;43.486;-1.508;2024-03-23T03:05:22;21.77;;;4.40;;
38755;SDS011;77170;43.486;-1.508;2024-03-23T03:07:49;15.40;;;4.47;;
38755;SDS011;77170;43.486;-1.508;2024-03-23T03:10:21;23.77;;;4.82;;
38755;SDS011;77170;43.486;-1.508;2024-03-23T03:13:04;16.15;;;4.35;;
38755;SDS011;77170;43.486;-1.508;2024-03-23T03:15:34;23.77;;;4.05;;
38755;SDS011;77170;43.486;-1.508;2024-03-23T03:18:03;23.23;;;3.75;;
38755;SDS011;77170;43.486;-1.508;2024-03-23T03:20:32;13.52;;;4.15;;
38755;SDS011;77170;43.486;-1.508;2024-03-23T03:23:01;25.60;;;4.75;;
38755;SDS011;77170;43.486;-1.508;2024-03-23T03:25:35;20.08;;;4.03;;
38755;SDS011;77170;43.486;-1.508;2024-03-23T03:28:01;16.92;;;4.22;;
38755;SDS011;77170;43.486;-1.508;2024-03-23T03:30:33;14.60;;;3.92;;
38755;SDS011;77170;43.486;-1.508;2024-03-23T03:33:00;21.05;;;4.03;;
38755;SDS011;77170;43.486;-1.508;2024-03-23T03:35:29;13.85;;;3.70;;
38755;SDS011;77170;43.486;-1.508;2024-03-23T03:37:56;10.10;;;3.20;;
38755;SDS011;77170;43.486;-1.508;2024-03-23T03:40:25;11.13;;;2.90;;
38755;SDS011;77170;43.486;-1.508;2024-03-23T03:42:51;16.13;;;3.75;;
38755;SDS011;77170;43.486;-1.508;2024-03-23T03:45:23;16.02;;;4.18;;
38755;SDS011;77170;43.486;-1.508;2024-03-23T03:47:52;11.05;;;3.42;;
38755;SDS011;77170;43.486;-1.508;2024-03-23T03:50:24;11.73;;;3.40;;
38755;SDS011;77170;43.486;-1.508;2024-03-23T03:52:52;11.55;;;3.20;;
38755;SDS011;77170;43.486;-1.508;2024-03-23T03:55:21;13.10;;;3.20;;
38755;SDS011;77170;43.486;-1.508;2024-03-23T03:57:50;16.95;;;3.35;;
38755;SDS011;77170;43.486;-1.508;2024-03-23T04:00:17;23.73;;;5.20;;
38755;SDS011;77170;43.486;-1.508;2024-03-23T04:02:43;11.52;;;3.47;;
38755;SDS011;77170;43.486;-1.508;2024-03-23T04:05:12;13.23;;;3.90;;
38755;SDS011;77170;43.486;-1.508;2024-03-23T04:07:38;14.88;;;3.85;;
38755;SDS011;77170;43.486;-1.508;2024-03-23T04:10:05;18.98;;;4.13;;
38755;SDS011;77170;43.486;-1.508;2024-03-23T04:12:33;13.43;;;3.75;;
38755;SDS011;77170;43.486;-1.508;2024-03-23T04:15:03;15.00;;;3.57;;
38755;SDS011;77170;43.486;-1.508;2024-03-23T04:17:34;20.13;;;3.88;;
38755;SDS011;77170;43.486;-1.508;2024-03-23T04:20:03;15.98;;;2.92;;
38755;SDS011;77170;43.486;-1.508;2024-03-23T04:22:36;13.85;;;2.80;;
38755;SDS011;77170;43.486;-1.508;2024-03-23T04:25:06;19.75;;;3.17;;
38755;SDS011;77170;43.486;-1.508;2024-03-23T04:27:36;17.58;;;3.00;;
38755;SDS011;77170;43.486;-1.508;2024-03-23T04:30:02;9.32;;;2.72;;
38755;SDS011;77170;43.486;-1.508;2024-03-23T04:32:34;12.95;;;3.03;;
38755;SDS011;77170;43.486;-1.508;2024-03-23T04:35:04;10.97;;;3.57;;
38755;SDS011;77170;43.486;-1.508;2024-03-23T04:37:34;11.73;;;3.78;;
38755;SDS011;77170;43.486;-1.508;2024-03-23T04:40:06;11.68;;;3.75;;
38755;SDS011;77170;43.486;-1.508;2024-03-23T04:42:33;12.65;;;4.07;;
38755;SDS011;77170;43.486;-1.508;2024-03-23T04:45:02;7.82;;;3.58;;
38755;SDS011;77170;43.486;-1.508;2024-03-23T04:47:31;16.48;;;4.78;;
38755;SDS011;77170;43.486;-1.508;2024-03-23T04:49:57;8.52;;;3.70;;
38755;SDS011;77170;43.486;-1.508;2024-03-23T04:52:27;13.97;;;3.40;;
38755;SDS011;77170;43.486;-1.508;2024-03-23T04:54:55;14.77;;;3.08;;
38755;SDS011;77170;43.486;-1.508;2024-03-23T04:57:25;13.77;;;2.55;;
38755;SDS011;77170;43.486;-1.508;2024-03-23T04:59:54;8.07;;;2.15;;
38755;SDS011;77170;43.486;-1.508;2024-03-23T05:02:20;11.43;;;2.15;;
38755;SDS011;77170;43.486;-1.508;2024-03-23T05:04:50;8.38;;;1.55;;
38755;SDS011;77170;43.486;-1.508;2024-03-23T05:07:16;14.27;;;2.30;;
38755;SDS011;77170;43.486;-1.508;2024-03-23T05:09:43;9.75;;;2.08;;
38755;SDS011;77170;43.486;-1.508;2024-03-23T05:12:09;14.85;;;2.17;;
38755;SDS011;77170;43.486;-1.508;2024-03-23T05:14:38;12.73;;;2.55;;
38755;SDS011;77170;43.486;-1.508;2024-03-23T05:17:07;16.02;;;2.70;;
38755;SDS011;77170;43.486;-1.508;2024-03-23T05:19:38;19.88;;;2.40;;
38755;SDS011;77170;43.486;-1.508;2024-03-23T05:22:09;14.88;;;2.47;;
38755;SDS011;77170;43.486;-1.508;2024-03-23T05:24:35;19.00;;;3.85;;
38755;SDS011;77170;43.486;-1.508;2024-03-23T05:27:04;21.02;;;3.35;;
38755;SDS011;77170;43.486;-1.508;2024-03-23T05:29:31;15.50;;;3.25;;
38755;SDS011;77170;43.486;-1.508;2024-03-23T05:31:57;18.08;;;3.58;;
38755;SDS011;77170;43.486;-1.508;2024-03-23T05:34:24;26.70;;;4.35;;
38755;SDS011;77170;43.486;-1.508;2024-03-23T05:36:54;27.88;;;5.00;;
38755;SDS011;77170;43.486;-1.508;2024-03-23T05:39:20;23.35;;;4.75;;
38755;SDS011;77170;43.486;-1.508;2024-03-23T05:41:49;22.80;;;4.95;;
38755;SDS011;77170;43.486;-1.508;2024-03-23T05:44:15;33.25;;;4.93;;
38755;SDS011;77170;43.486;-1.508;2024-03-23T05:46:42;30.98;;;4.53;;
38755;SDS011;77170;43.486;-1.508;2024-03-23T05:49:15;29.52;;;4.32;;
38755;SDS011;77170;43.486;-1.508;2024-03-23T05:51:43;27.10;;;4.63;;
38755;SDS011;77170;43.486;-1.508;2024-03-23T05:54:09;34.85;;;5.15;;
38755;SDS011;77170;43.486;-1.508;2024-03-23T05:56:35;31.95;;;4.57;;
38755;SDS011;77170;43.486;-1.508;2024-03-23T05:59:05;32.23;;;5.63;;
38755;SDS011;77170;43.486;-1.508;2024-03-23T06:01:32;31.60;;;4.80;;
38755;SDS011;77170;43.486;-1.508;2024-03-23T06:03:58;24.92;;;4.88;;
38755;SDS011;77170;43.486;-1.508;2024-03-23T06:06:27;34.10;;;5.07;;
38755;SDS011;77170;43.486;-1.508;2024-03-23T06:08:56;36.38;;;5.03;;
38755;SDS011;77170;43.486;-1.508;2024-03-23T06:11:22;27.33;;;5.20;;
38755;SDS011;77170;43.486;-1.508;2024-03-23T06:13:48;29.65;;;5.80;;
38755;SDS011;77170;43.486;-1.508;2024-03-23T06:16:15;36.67;;;5.70;;
38755;SDS011;77170;43.486;-1.508;2024-03-23T06:18:44;24.10;;;5.20;;
38755;SDS011;77170;43.486;-1.508;2024-03-23T06:21:17;30.58;;;6.30;;
38755;SDS011;77170;43.486;-1.508;2024-03-23T06:23:51;28.25;;;4.78;;
38755;SDS011;77170;43.486;-1.508;2024-03-23T06:26:20;39.25;;;5.80;;
38755;SDS011;77170;43.486;-1.508;2024-03-23T06:28:50;27.23;;;5.10;;
38755;SDS011;77170;43.486;-1.508;2024-03-23T06:31:16;35.28;;;5.68;;
38755;SDS011;77170;43.486;-1.508;2024-03-23T06:33:43;38.22;;;6.75;;
38755;SDS011;77170;43.486;-1.508;2024-03-23T06:36:12;31.58;;;5.45;;
38755;SDS011;77170;43.486;-1.508;2024-03-23T06:38:41;32.85;;;4.90;;
38755;SDS011;77170;43.486;-1.508;2024-03-23T06:41:10;23.45;;;4.93;;
38755;SDS011;77170;43.486;-1.508;2024-03-23T06:43:40;34.25;;;4.95;;
38755;SDS011;77170;43.486;-1.508;2024-03-23T06:46:08;28.42;;;5.10;;
38755;SDS011;77170;43.486;-1.508;2024-03-23T06:48:37;41.30;;;5.15;;
38755;SDS011;77170;43.486;-1.508;2024-03-23T06:51:06;30.13;;;5.13;;
38755;SDS011;77170;43.486;-1.508;2024-03-23T06:53:32;32.45;;;5.68;;
38755;SDS011;77170;43.486;-1.508;2024-03-23T06:56:00;37.92;;;5.63;;
38755;SDS011;77170;43.486;-1.508;2024-03-23T06:58:27;27.75;;;5.22;;
38755;SDS011;77170;43.486;-1.508;2024-03-23T07:00:56;37.65;;;5.93;;
38755;SDS011;77170;43.486;-1.508;2024-03-23T07:03:25;33.30;;;5.65;;
38755;SDS011;77170;43.486;-1.508;2024-03-23T07:05:51;32.28;;;5.05;;
38755;SDS011;77170;43.486;-1.508;2024-03-23T07:08:26;26.42;;;4.95;;
38755;SDS011;77170;43.486;-1.508;2024-03-23T07:10:55;45.00;;;5.68;;
38755;SDS011;77170;43.486;-1.508;2024-03-23T07:13:24;27.20;;;5.45;;
38755;SDS011;77170;43.486;-1.508;2024-03-23T07:15:53;30.10;;;4.93;;
38755;SDS011;77170;43.486;-1.508;2024-03-23T07:18:23;28.75;;;5.55;;
38755;SDS011;77170;43.486;-1.508;2024-03-23T07:20:57;33.72;;;5.60;;
38755;SDS011;77170;43.486;-1.508;2024-03-23T07:23:31;32.03;;;5.63;;
38755;SDS011;77170;43.486;-1.508;2024-03-23T07:26:03;25.95;;;4.60;;
38755;SDS011;77170;43.486;-1.508;2024-03-23T07:28:33;38.97;;;5.80;;
38755;SDS011;77170;43.486;-1.508;2024-03-23T07:31:08;25.40;;;4.60;;
38755;SDS011;77170;43.486;-1.508;2024-03-23T07:33:45;28.00;;;4.43;;
38755;SDS011;77170;43.486;-1.508;2024-03-23T07:36:21;21.48;;;4.47;;
38755;SDS011;77170;43.486;-1.508;2024-03-23T07:38:48;31.25;;;4.55;;
38755;SDS011;77170;43.486;-1.508;2024-03-23T07:41:19;24.83;;;4.70;;
38755;SDS011;77170;43.486;-1.508;2024-03-23T07:43:48;31.20;;;4.53;;
38755;SDS011;77170;43.486;-1.508;2024-03-23T07:46:18;29.75;;;4.60;;
38755;SDS011;77170;43.486;-1.508;2024-03-23T07:48:45;31.38;;;4.88;;
38755;SDS011;77170;43.486;-1.508;2024-03-23T07:51:18;31.45;;;5.55;;
38755;SDS011;77170;43.486;-1.508;2024-03-23T07:53:50;28.90;;;5.18;;
38755;SDS011;77170;43.486;-1.508;2024-03-23T07:56:20;24.70;;;4.68;;
38755;SDS011;77170;43.486;-1.508;2024-03-23T07:58:49;27.95;;;4.38;;
38755;SDS011;77170;43.486;-1.508;2024-03-23T08:01:18;31.23;;;5.85;;
38755;SDS011;77170;43.486;-1.508;2024-03-23T08:03:45;28.37;;;6.17;;
38755;SDS011;77170;43.486;-1.508;2024-03-23T08:06:14;32.65;;;5.63;;
38755;SDS011;77170;43.486;-1.508;2024-03-23T08:08:41;32.78;;;6.32;;
38755;SDS011;77170;43.486;-1.508;2024-03-23T08:11:14;28.02;;;8.50;;
38755;SDS011;77170;43.486;-1.508;2024-03-23T08:13:44;29.92;;;5.85;;
38755;SDS011;77170;43.486;-1.508;2024-03-23T08:16:11;31.52;;;5.18;;
38755;SDS011;77170;43.486;-1.508;2024-03-23T08:18:43;18.80;;;4.72;;
38755;SDS011;77170;43.486;-1.508;2024-03-23T08:21:12;25.80;;;4.73;;
38755;SDS011;77170;43.486;-1.508;2024-03-23T08:23:39;35.63;;;4.80;;
38755;SDS011;77170;43.486;-1.508;2024-03-23T08:26:15;23.63;;;4.50;;
38755;SDS011;77170;43.486;-1.508;2024-03-23T08:28:43;33.45;;;5.70;;
38755;SDS011;77170;43.486;-1.508;2024-03-23T08:31:13;34.78;;;6.80;;
38755;SDS011;77170;43.486;-1.508;2024-03-23T08:33:44;32.20;;;5.93;;
38755;SDS011;77170;43.486;-1.508;2024-03-23T08:36:17;26.88;;;4.95;;
38755;SDS011;77170;43.486;-1.508;2024-03-23T08:38:46;29.55;;;5.57;;
38755;SDS011;77170;43.486;-1.508;2024-03-23T08:41:15;22.05;;;4.10;;
38755;SDS011;77170;43.486;-1.508;2024-03-23T08:43:44;34.50;;;5.13;;
38755;SDS011;77170;43.486;-1.508;2024-03-23T08:46:15;24.27;;;4.60;;
38755;SDS011;77170;43.486;-1.508;2024-03-23T08:48:43;36.17;;;5.28;;
38755;SDS011;77170;43.486;-1.508;2024-03-23T08:51:14;29.20;;;4.80;;
38755;SDS011;77170;43.486;-1.508;2024-03-23T08:53:42;30.48;;;5.82;;
38755;SDS011;77170;43.486;-1.508;2024-03-23T08:56:09;27.67;;;5.47;;
38755;SDS011;77170;43.486;-1.508;2024-03-23T08:58:41;30.95;;;4.93;;
38755;SDS011;77170;43.486;-1.508;2024-03-23T09:01:08;30.98;;;5.28;;
38755;SDS011;77170;43.486;-1.508;2024-03-23T09:03:39;38.58;;;5.72;;
38755;SDS011;77170;43.486;-1.508;2024-03-23T09:06:07;36.35;;;5.53;;
38755;SDS011;77170;43.486;-1.508;2024-03-23T09:08:36;34.47;;;5.20;;
38755;SDS011;77170;43.486;-1.508;2024-03-23T09:11:06;31.85;;;5.00;;
38755;SDS011;77170;43.486;-1.508;2024-03-23T09:13:37;22.80;;;4.90;;
38755;SDS011;77170;43.486;-1.508;2024-03-23T09:16:07;25.80;;;5.18;;
38755;SDS011;77170;43.486;-1.508;2024-03-23T09:18:36;26.77;;;5.07;;
38755;SDS011;77170;43.486;-1.508;2024-03-23T09:21:03;29.17;;;3.85;;
38755;SDS011;77170;43.486;-1.508;2024-03-23T09:23:39;29.85;;;5.03;;
38755;SDS011;77170;43.486;-1.508;2024-03-23T09:26:17;28.85;;;5.00;;
38755;SDS011;77170;43.486;-1.508;2024-03-23T09:28:48;30.63;;;4.80;;
38755;SDS011;77170;43.486;-1.508;2024-03-23T09:31:18;21.52;;;4.32;;
38755;SDS011;77170;43.486;-1.508;2024-03-23T09:33:47;28.27;;;5.70;;
38755;SDS011;77170;43.486;-1.508;2024-03-23T09:36:17;23.10;;;4.97;;
38755;SDS011;77170;43.486;-1.508;2024-03-23T09:38:46;27.30;;;5.97;;
38755;SDS011;77170;43.486;-1.508;2024-03-23T09:41:12;31.83;;;5.72;;
38755;SDS011;77170;43.486;-1.508;2024-03-23T09:48:40;20.98;;;4.93;;
38755;SDS011;77170;43.486;-1.508;2024-03-23T09:51:09;29.52;;;6.07;;
38755;SDS011;77170;43.486;-1.508;2024-03-23T09:53:37;26.33;;;5.05;;
38755;SDS011;77170;43.486;-1.508;2024-03-23T09:56:03;25.55;;;4.32;;
38755;SDS011;77170;43.486;-1.508;2024-03-23T09:58:30;27.00;;;5.50;;
38755;SDS011;77170;43.486;-1.508;2024-03-23T10:00:57;28.67;;;5.45;;
38755;SDS011;77170;43.486;-1.508;2024-03-23T10:03:24;26.25;;;4.45;;
38755;SDS011;77170;43.486;-1.508;2024-03-23T10:06:11;24.42;;;4.38;;
38755;SDS011;77170;43.486;-1.508;2024-03-23T10:08:36;28.20;;;4.50;;
38755;SDS011;77170;43.486;-1.508;2024-03-23T10:11:15;20.50;;;3.92;;
38755;SDS011;77170;43.486;-1.508;2024-03-23T10:13:42;23.17;;;4.03;;
38755;SDS011;77170;43.486;-1.508;2024-03-23T10:16:09;25.80;;;4.57;;
38755;SDS011;77170;43.486;-1.508;2024-03-23T10:18:39;22.33;;;4.32;;
38755;SDS011;77170;43.486;-1.508;2024-03-23T10:21:06;24.15;;;4.28;;
38755;SDS011;77170;43.486;-1.508;2024-03-23T10:23:40;23.92;;;4.30;;
38755;SDS011;77170;43.486;-1.508;2024-03-23T10:26:16;26.75;;;4.55;;
38755;SDS011;77170;43.486;-1.508;2024-03-23T10:28:54;26.13;;;3.97;;
38755;SDS011;77170;43.486;-1.508;2024-03-23T10:31:32;16.80;;;3.40;;
38755;SDS011;77170;43.486;-1.508;2024-03-23T10:33:59;25.65;;;4.25;;
38755;SDS011;77170;43.486;-1.508;2024-03-23T10:36:29;19.92;;;3.72;;
38755;SDS011;77170;43.486;-1.508;2024-03-23T10:41:33;30.73;;;3.97;;
38755;SDS011;77170;43.486;-1.508;2024-03-23T10:44:02;19.23;;;4.18;;
38755;SDS011;77170;43.486;-1.508;2024-03-23T10:46:33;25.88;;;4.18;;
38755;SDS011;77170;43.486;-1.508;2024-03-23T10:49:03;20.33;;;3.78;;
38755;SDS011;77170;43.486;-1.508;2024-03-23T10:51:30;22.48;;;3.95;;
38755;SDS011;77170;43.486;-1.508;2024-03-23T10:56:29;30.13;;;3.78;;
38755;SDS011;77170;43.486;-1.508;2024-03-23T10:59:03;34.28;;;4.85;;
38755;SDS011;77170;43.486;-1.508;2024-03-23T11:01:35;19.30;;;3.45;;
38755;SDS011;77170;43.486;-1.508;2024-03-23T11:04:31;21.58;;;4.25;;
38755;SDS011;77170;43.486;-1.508;2024-03-23T11:07:49;19.15;;;3.55;;
38755;SDS011;77170;43.486;-1.508;2024-03-23T11:09:53;22.33;;;4.33;;
38755;SDS011;77170;43.486;-1.508;2024-03-23T11:14:53;26.20;;;4.55;;
38755;SDS011;77170;43.486;-1.508;2024-03-23T11:17:25;17.00;;;3.95;;
38755;SDS011;77170;43.486;-1.508;2024-03-23T11:19:58;28.25;;;4.88;;
38755;SDS011;77170;43.486;-1.508;2024-03-23T11:25:18;21.88;;;4.25;;
38755;SDS011;77170;43.486;-1.508;2024-03-23T11:27:52;20.38;;;3.83;;
38755;SDS011;77170;43.486;-1.508;2024-03-23T11:30:40;21.58;;;4.15;;
38755;SDS011;77170;43.486;-1.508;2024-03-23T11:33:09;25.92;;;4.20;;
38755;SDS011;77170;43.486;-1.508;2024-03-23T11:35:39;17.77;;;3.75;;
38755;SDS011;77170;43.486;-1.508;2024-03-23T11:38:13;22.75;;;4.00;;
38755;SDS011;77170;43.486;-1.508;2024-03-23T11:40:47;22.42;;;4.03;;
38755;SDS011;77170;43.486;-1.508;2024-03-23T11:43:15;14.23;;;2.90;;
38755;SDS011;77170;43.486;-1.508;2024-03-23T11:45:50;22.20;;;3.78;;
38755;SDS011;77170;43.486;-1.508;2024-03-23T11:48:24;20.95;;;3.85;;
38755;SDS011;77170;43.486;-1.508;2024-03-23T11:50:56;19.40;;;3.55;;
38755;SDS011;77170;43.486;-1.508;2024-03-23T11:53:26;23.60;;;6.25;;
38755;SDS011;77170;43.486;-1.508;2024-03-23T11:55:58;19.73;;;4.57;;
38755;SDS011;77170;43.486;-1.508;2024-03-23T11:58:26;18.85;;;4.63;;
38755;SDS011;77170;43.486;-1.508;2024-03-23T12:00:58;18.85;;;3.63;;
38755;SDS011;77170;43.486;-1.508;2024-03-23T12:03:28;21.60;;;3.90;;
38755;SDS011;77170;43.486;-1.508;2024-03-23T12:05:59;17.55;;;4.13;;
38755;SDS011;77170;43.486;-1.508;2024-03-23T12:08:30;23.48;;;3.80;;
38755;SDS011;77170;43.486;-1.508;2024-03-23T12:11:06;22.33;;;3.53;;
38755;SDS011;77170;43.486;-1.508;2024-03-23T12:13:38;21.77;;;3.50;;
38755;SDS011;77170;43.486;-1.508;2024-03-23T12:16:10;20.67;;;3.83;;
38755;SDS011;77170;43.486;-1.508;2024-03-23T12:19:04;19.25;;;3.85;;
38755;SDS011;77170;43.486;-1.508;2024-03-23T12:21:33;25.67;;;5.65;;
38755;SDS011;77170;43.486;-1.508;2024-03-23T12:24:06;22.55;;;3.92;;
38755;SDS011;77170;43.486;-1.508;2024-03-23T12:26:44;15.95;;;3.58;;
38755;SDS011;77170;43.486;-1.508;2024-03-23T12:29:17;24.55;;;4.28;;
38755;SDS011;77170;43.486;-1.508;2024-03-23T12:31:48;19.92;;;3.55;;
38755;SDS011;77170;43.486;-1.508;2024-03-23T12:34:14;20.33;;;4.32;;
38755;SDS011;77170;43.486;-1.508;2024-03-23T12:36:41;20.63;;;4.03;;
38755;SDS011;77170;43.486;-1.508;2024-03-23T12:39:10;16.73;;;3.40;;
38755;SDS011;77170;43.486;-1.508;2024-03-23T12:41:36;19.52;;;3.58;;
38755;SDS011;77170;43.486;-1.508;2024-03-23T12:44:03;18.58;;;3.40;;
38755;SDS011;77170;43.486;-1.508;2024-03-23T12:46:33;28.92;;;4.20;;
38755;SDS011;77170;43.486;-1.508;2024-03-23T12:49:02;15.85;;;3.13;;
38755;SDS011;77170;43.486;-1.508;2024-03-23T12:51:32;18.00;;;3.25;;
38755;SDS011;77170;43.486;-1.508;2024-03-23T12:54:01;18.00;;;3.85;;
38755;SDS011;77170;43.486;-1.508;2024-03-23T12:56:30;18.97;;;3.70;;
38755;SDS011;77170;43.486;-1.508;2024-03-23T12:59:01;30.08;;;4.88;;
38755;SDS011;77170;43.486;-1.508;2024-03-23T13:01:27;26.65;;;3.55;;
38755;SDS011;77170;43.486;-1.508;2024-03-23T13:03:54;16.58;;;4.25;;
38755;SDS011;77170;43.486;-1.508;2024-03-23T13:06:23;20.02;;;3.92;;
38755;SDS011;77170;43.486;-1.508;2024-03-23T13:09:00;19.10;;;3.55;;
38755;SDS011;77170;43.486;-1.508;2024-03-23T13:11:30;25.30;;;4.28;;
38755;SDS011;77170;43.486;-1.508;2024-03-23T13:14:01;18.67;;;3.38;;
38755;SDS011;77170;43.486;-1.508;2024-03-23T13:16:29;22.13;;;4.35;;
38755;SDS011;77170;43.486;-1.508;2024-03-23T13:18:58;23.23;;;3.88;;
38755;SDS011;77170;43.486;-1.508;2024-03-23T13:21:28;18.25;;;2.90;;
38755;SDS011;77170;43.486;-1.508;2024-03-23T13:23:55;20.10;;;5.13;;
38755;SDS011;77170;43.486;-1.508;2024-03-23T13:26:26;23.05;;;3.28;;
38755;SDS011;77170;43.486;-1.508;2024-03-23T13:28:53;22.75;;;4.95;;
38755;SDS011;77170;43.486;-1.508;2024-03-23T13:31:22;26.45;;;4.30;;
38755;SDS011;77170;43.486;-1.508;2024-03-23T13:33:51;21.67;;;3.33;;
38755;SDS011;77170;43.486;-1.508;2024-03-23T13:36:18;28.20;;;4.90;;
38755;SDS011;77170;43.486;-1.508;2024-03-23T13:38:52;23.95;;;4.32;;
38755;SDS011;77170;43.486;-1.508;2024-03-23T13:41:22;21.88;;;3.63;;
38755;SDS011;77170;43.486;-1.508;2024-03-23T13:43:52;14.70;;;3.40;;
38755;SDS011;77170;43.486;-1.508;2024-03-23T13:46:24;29.52;;;4.50;;
38755;SDS011;77170;43.486;-1.508;2024-03-23T13:48:54;18.47;;;3.87;;
38755;SDS011;77170;43.486;-1.508;2024-03-23T13:51:23;18.33;;;3.88;;
38755;SDS011;77170;43.486;-1.508;2024-03-23T13:53:55;19.17;;;3.38;;
38755;SDS011;77170;43.486;-1.508;2024-03-23T13:56:29;25.50;;;3.25;;
38755;SDS011;77170;43.486;-1.508;2024-03-23T13:58:57;26.27;;;4.20;;
38755;SDS011;77170;43.486;-1.508;2024-03-23T14:01:24;18.25;;;3.45;;
38755;SDS011;77170;43.486;-1.508;2024-03-23T14:03:53;22.95;;;4.20;;
38755;SDS011;77170;43.486;-1.508;2024-03-23T14:06:24;22.48;;;3.80;;
38755;SDS011;77170;43.486;-1.508;2024-03-23T14:08:54;14.98;;;3.38;;
38755;SDS011;77170;43.486;-1.508;2024-03-23T14:11:23;25.58;;;3.92;;
38755;SDS011;77170;43.486;-1.508;2024-03-23T14:13:53;17.05;;;3.25;;
38755;SDS011;77170;43.486;-1.508;2024-03-23T14:16:20;16.35;;;3.38;;
38755;SDS011;77170;43.486;-1.508;2024-03-23T14:18:47;16.92;;;3.65;;
38755;SDS011;77170;43.486;-1.508;2024-03-23T14:21:13;20.63;;;3.95;;
38755;SDS011;77170;43.486;-1.508;2024-03-23T14:23:39;20.70;;;3.90;;
38755;SDS011;77170;43.486;-1.508;2024-03-23T14:26:08;15.75;;;3.75;;
38755;SDS011;77170;43.486;-1.508;2024-03-23T14:28:34;19.65;;;3.47;;
38755;SDS011;77170;43.486;-1.508;2024-03-23T14:31:00;18.75;;;3.00;;
38755;SDS011;77170;43.486;-1.508;2024-03-23T14:33:26;16.73;;;3.97;;
38755;SDS011;77170;43.486;-1.508;2024-03-23T14:35:55;16.80;;;2.90;;
38755;SDS011;77170;43.486;-1.508;2024-03-23T14:38:22;19.38;;;3.45;;
38755;SDS011;77170;43.486;-1.508;2024-03-23T14:40:48;16.52;;;3.63;;
38755;SDS011;77170;43.486;-1.508;2024-03-23T14:43:14;17.92;;;3.47;;
38755;SDS011;77170;43.486;-1.508;2024-03-23T14:48:36;17.67;;;3.35;;
38755;SDS011;77170;43.486;-1.508;2024-03-23T14:51:02;19.70;;;3.45;;
38755;SDS011;77170;43.486;-1.508;2024-03-23T14:53:30;19.25;;;3.47;;
38755;SDS011;77170;43.486;-1.508;2024-03-23T14:55:57;15.45;;;3.10;;
38755;SDS011;77170;43.486;-1.508;2024-03-23T14:58:23;16.02;;;3.65;;
38755;SDS011;77170;43.486;-1.508;2024-03-23T15:00:49;14.15;;;3.08;;
38755;SDS011;77170;43.486;-1.508;2024-03-23T15:03:16;18.10;;;3.92;;
38755;SDS011;77170;43.486;-1.508;2024-03-23T15:05:51;22.08;;;3.60;;
38755;SDS011;77170;43.486;-1.508;2024-03-23T15:08:27;16.75;;;3.65;;
38755;SDS011;77170;43.486;-1.508;2024-03-23T15:10:53;20.42;;;3.75;;
38755;SDS011;77170;43.486;-1.508;2024-03-23T15:13:19;17.73;;;3.47;;
38755;SDS011;77170;43.486;-1.508;2024-03-23T15:15:48;19.60;;;3.85;;
38755;SDS011;77170;43.486;-1.508;2024-03-23T15:18:14;18.80;;;3.60;;
38755;SDS011;77170;43.486;-1.508;2024-03-23T15:20:41;13.48;;;3.05;;
38755;SDS011;77170;43.486;-1.508;2024-03-23T15:23:09;17.83;;;3.97;;
38755;SDS011;77170;43.486;-1.508;2024-03-23T15:25:35;14.10;;;3.40;;
38755;SDS011;77170;43.486;-1.508;2024-03-23T15:28:01;15.65;;;2.80;;
38755;SDS011;77170;43.486;-1.508;2024-03-23T15:30:28;15.27;;;3.20;;
38755;SDS011;77170;43.486;-1.508;2024-03-23T15:32:54;18.05;;;3.40;;
38755;SDS011;77170;43.486;-1.508;2024-03-23T15:35:20;19.95;;;3.53;;
38755;SDS011;77170;43.486;-1.508;2024-03-23T15:37:48;17.42;;;3.80;;
38755;SDS011;77170;43.486;-1.508;2024-03-23T15:40:15;21.40;;;3.53;;
38755;SDS011;77170;43.486;-1.508;2024-03-23T15:42:41;15.27;;;3.10;;
38755;SDS011;77170;43.486;-1.508;2024-03-23T15:45:07;19.55;;;3.20;;